Terminal Aerodrome Forecast
Issued by NWS Newport/Morehead City, NC

Home | Current Version | Previous Version | Text Only | Print | Product List | Glossary On
Versions: 1 2 3 4 5 6 7 8 9 10 11 12 13 14
000
FTUS42 KMHX 190800 AAA
TAFEWN
TAF AMD
KEWN 190800Z 1908/2006 00000KT P6SM BKN080
      TEMPO 1908/1909 3SM BR
     FM191200 01005KT P6SM SCT250=

USA.gov is the U.S. government's official web portal to all federal, state and local government web resources and services.